Time;durP1;ratioP1;P1;durP2;ratioP2;P2;SDS_P1;SDS_P2;PMS_P1;PMS_P2;Temp;Humidity;BMP_temperature;BMP_pressure;BME280_temperature;BME280_humidity;BME280_pressure;Samples;Min_cycle;Max_cycle;Signal;HPM_P1;HPM_P2
2022/12/07 00:01:38;;;;;;;;;;;3.90;99.90;;;;;;5073297;28;19920;-78
2022/12/07 00:04:04;;;;;;;;;;;4.20;99.90;;;;;;5075376;28;19924;-78
2022/12/07 00:06:34;;;;;;;;;;;3.80;99.90;;;;;;5075191;28;19995;-77
2022/12/07 00:08:59;;;;;;;;;;;3.70;99.90;;;;;;5073238;28;19920;-77
2022/12/07 00:11:28;;;;;;;;;;;4.30;99.90;;;;;;5075349;28;20433;-77
2022/12/07 00:13:54;;;;;;;;;;;4.30;99.90;;;;;;5075157;28;20016;-77
2022/12/07 00:16:21;;;;;;;;;;;3.80;99.90;;;;;;5072408;28;19920;-77
2022/12/07 00:18:47;;;;;;;;;;;6.10;99.90;;;;;;5058945;28;19931;-77
2022/12/07 00:21:13;;;;;;;;;;;4.00;99.90;;;;;;5055468;28;19924;-77
2022/12/07 00:23:42;;;;;;;;;;;4.10;99.90;;;;;;5054475;28;20277;-78
2022/12/07 00:26:09;;;;;;;;;;;4.90;99.90;;;;;;5054536;28;19970;-78
2022/12/07 00:28:35;;;;;;;;;;;5.50;99.90;;;;;;5066822;28;19966;-77
2022/12/07 00:31:01;;;;;;;;;;;4.40;99.90;;;;;;5073886;28;19921;-77
2022/12/07 00:33:28;;;;;;;;;;;4.50;99.90;;;;;;5073485;28;19920;-78
2022/12/07 00:35:57;;;;;;;;;;;4.50;99.90;;;;;;5074420;28;19920;-78
2022/12/07 00:38:33;;;;;;;;;;;4.50;99.90;;;;;;5063423;28;19920;-78
2022/12/07 00:41:02;;;;;;;;;;;4.40;99.90;;;;;;5068950;28;19971;-78
2022/12/07 00:43:28;;;;;;;;;;;4.40;99.90;;;;;;5074116;28;19920;-78
2022/12/07 00:45:54;;;;;;;;;;;4.40;99.90;;;;;;5073183;28;19920;-78
2022/12/07 00:48:20;;;;;;;;;;;4.90;99.90;;;;;;5074278;28;19920;-78
2022/12/07 00:50:49;;;;;;;;;;;4.30;99.90;;;;;;5073708;28;19975;-76
2022/12/07 00:53:14;;;;;;;;;;;4.20;99.90;;;;;;5060370;28;19927;-77
2022/12/07 00:55:40;;;;;;;;;;;4.10;99.90;;;;;;5054200;28;20291;-77
2022/12/07 00:58:06;;;;;;;;;;;5.10;99.90;;;;;;5053439;28;20373;-76
2022/12/07 01:00:32;;;;;;;;;;;4.00;99.90;;;;;;5053835;28;20394;-77
2022/12/07 01:02:58;;;;;;;;;;;4.00;99.90;;;;;;5053413;28;19959;-77
2022/12/07 01:05:23;;;;;;;;;;;3.90;99.90;;;;;;5052741;28;20371;-77
2022/12/07 01:07:49;;;;;;;;;;;4.00;99.90;;;;;;5062983;28;19927;-77
2022/12/07 01:10:14;;;;;;;;;;;3.90;99.90;;;;;;5074420;28;19920;-77
2022/12/07 01:12:40;;;;;;;;;;;4.30;99.90;;;;;;5073543;28;20166;-77
2022/12/07 01:15:06;;;;;;;;;;;4.30;99.90;;;;;;5073161;28;20057;-77
2022/12/07 01:17:32;;;;;;;;;;;4.30;99.90;;;;;;5054731;28;20448;-77
2022/12/07 01:19:58;;;;;;;;;;;4.30;99.90;;;;;;5053407;28;20011;-77
2022/12/07 01:22:23;;;;;;;;;;;4.20;99.90;;;;;;5054094;28;20015;-77
2022/12/07 01:24:49;;;;;;;;;;;4.20;99.90;;;;;;5085929;28;19921;-77
2022/12/07 01:27:17;;;;;;;;;;;4.10;99.90;;;;;;5054153;28;19921;-77
2022/12/07 01:29:43;;;;;;;;;;;4.10;99.90;;;;;;5053018;28;20326;-77
2022/12/07 01:32:08;;;;;;;;;;;4.10;99.90;;;;;;5053360;28;19928;-77
2022/12/07 01:34:34;;;;;;;;;;;4.80;99.90;;;;;;5052824;28;19920;-77
2022/12/07 01:36:59;;;;;;;;;;;4.00;99.90;;;;;;5088754;28;19924;-77
2022/12/07 01:39:26;;;;;;;;;;;4.00;99.90;;;;;;5073851;28;19971;-78
2022/12/07 01:41:58;;;;;;;;;;;4.90;99.90;;;;;;5072556;28;19921;-77
2022/12/07 01:44:24;;;;;;;;;;;4.20;99.90;;;;;;5072590;28;20290;-77
2022/12/07 01:46:51;;;;;;;;;;;4.30;99.90;;;;;;5071453;28;19931;-77
2022/12/07 01:49:19;;;;;;;;;;;4.40;99.90;;;;;;5072995;28;19946;-77
2022/12/07 01:51:46;;;;;;;;;;;4.50;99.90;;;;;;5073631;28;20010;-77
2022/12/07 01:54:12;;;;;;;;;;;4.50;99.90;;;;;;5072566;28;19974;-77
2022/12/07 01:56:39;;;;;;;;;;;4.50;99.90;;;;;;5073110;28;19924;-77
2022/12/07 01:59:15;;;;;;;;;;;4.50;99.90;;;;;;5071629;28;19920;-77
2022/12/07 02:01:40;;;;;;;;;;;5.30;99.90;;;;;;5061640;28;19927;-76
2022/12/07 02:04:06;;;;;;;;;;;4.80;99.90;;;;;;5052930;28;19928;-76
2022/12/07 02:06:31;;;;;;;;;;;5.00;99.90;;;;;;5052920;28;19927;-76
2022/12/07 02:08:57;;;;;;;;;;;4.20;99.90;;;;;;5050798;28;20417;-76
2022/12/07 02:11:23;;;;;;;;;;;4.20;99.90;;;;;;5053379;28;20372;-77
2022/12/07 02:13:49;;;;;;;;;;;4.50;99.90;;;;;;5052495;28;19974;-76
2022/12/07 02:16:30;;;;;;;;;;;3.80;99.90;;;;;;5052564;28;20012;-76
2022/12/07 02:19:09;;;;;;;;;;;4.20;99.90;;;;;;5064962;28;19924;-76
2022/12/07 02:21:45;;;;;;;;;;;4.30;99.90;;;;;;5071915;28;20287;-77
2022/12/07 02:24:23;;;;;;;;;;;4.40;99.90;;;;;;5072883;28;19925;-77
2022/12/07 02:27:00;;;;;;;;;;;4.40;99.90;;;;;;5061261;28;19928;-77
2022/12/07 02:29:46;;;;;;;;;;;4.30;99.90;;;;;;5052317;28;19925;-77
2022/12/07 02:32:15;;;;;;;;;;;4.40;99.90;;;;;;5052977;28;19932;-76
2022/12/07 02:34:49;;;;;;;;;;;4.40;99.90;;;;;;5053053;28;19921;-77
2022/12/07 02:37:32;;;;;;;;;;;4.50;99.90;;;;;;5062549;28;19920;-77
2022/12/07 02:40:00;;;;;;;;;;;4.50;99.90;;;;;;5071781;28;19943;-78
2022/12/07 02:42:32;;;;;;;;;;;5.20;99.90;;;;;;5072996;28;20011;-77
2022/12/07 02:44:59;;;;;;;;;;;4.60;99.90;;;;;;5071052;28;19920;-78
2022/12/07 02:47:24;;;;;;;;;;;4.60;99.90;;;;;;5070685;28;19969;-77
2022/12/07 02:49:51;;;;;;;;;;;4.60;99.90;;;;;;5070567;28;19920;-77
2022/12/07 02:52:16;;;;;;;;;;;5.40;99.90;;;;;;5072626;28;19924;-77
2022/12/07 02:54:42;;;;;;;;;;;4.60;99.90;;;;;;5071364;28;20433;-77
2022/12/07 02:57:14;;;;;;;;;;;4.50;99.90;;;;;;5071417;28;19927;-77
2022/12/07 02:59:50;;;;;;;;;;;4.90;99.90;;;;;;5071650;28;19920;-77
2022/12/07 03:02:34;;;;;;;;;;;4.40;99.90;;;;;;5061670;28;19921;-77
2022/12/07 03:04:59;;;;;;;;;;;4.30;99.90;;;;;;5050172;28;19927;-77
2022/12/07 03:07:48;;;;;;;;;;;4.40;99.90;;;;;;5052423;28;19924;-77
2022/12/07 03:10:14;;;;;;;;;;;4.40;99.90;;;;;;5032935;28;19920;-78
2022/12/07 03:12:58;;;;;;;;;;;4.30;99.90;;;;;;5051383;28;19927;-78
2022/12/07 03:15:31;;;;;;;;;;;4.40;99.90;;;;;;5052199;28;19924;-77
2022/12/07 03:17:59;;;;;;;;;;;4.40;99.90;;;;;;5066544;28;19974;-77
2022/12/07 03:20:25;;;;;;;;;;;4.30;99.90;;;;;;5070844;28;19930;-77
2022/12/07 03:22:50;;;;;;;;;;;4.30;99.90;;;;;;5072202;28;19924;-77
2022/12/07 03:25:17;;;;;;;;;;;4.30;99.90;;;;;;5064841;28;20402;-77
2022/12/07 03:27:45;;;;;;;;;;;4.70;99.90;;;;;;5056317;28;19952;-77
2022/12/07 03:30:21;;;;;;;;;;;4.40;99.90;;;;;;5055644;28;19921;-77
2022/12/07 03:32:50;;;;;;;;;;;4.40;99.90;;;;;;5053944;28;19928;-77
2022/12/07 03:35:18;;;;;;;;;;;4.50;99.90;;;;;;5060941;28;19920;-78
2022/12/07 03:37:53;;;;;;;;;;;4.50;99.90;;;;;;5075767;28;19928;-77
2022/12/07 03:40:22;;;;;;;;;;;4.50;99.90;;;;;;5073967;28;19960;-77
2022/12/07 03:42:48;;;;;;;;;;;4.60;99.90;;;;;;5074790;28;20105;-77
2022/12/07 03:45:15;;;;;;;;;;;4.50;99.90;;;;;;5073073;28;20011;-77
2022/12/07 03:47:47;;;;;;;;;;;5.10;99.90;;;;;;5053857;28;20296;-78
2022/12/07 03:50:25;;;;;;;;;;;4.50;99.90;;;;;;5055733;28;19917;-77
2022/12/07 03:52:56;;;;;;;;;;;4.40;99.90;;;;;;5053981;28;19920;-78
2022/12/07 03:55:28;;;;;;;;;;;4.30;99.90;;;;;;5057019;28;19936;-78
2022/12/07 03:57:58;;;;;;;;;;;5.40;99.90;;;;;;5074896;28;19944;-78
2022/12/07 04:00:24;;;;;;;;;;;4.20;99.90;;;;;;5074903;28;19971;-78
2022/12/07 04:02:51;;;;;;;;;;;4.20;99.90;;;;;;5074208;28;19963;-78
2022/12/07 04:05:16;;;;;;;;;;;4.20;99.90;;;;;;5074709;28;20416;-78
2022/12/07 04:07:42;;;;;;;;;;;4.20;99.90;;;;;;5075002;28;20019;-78
2022/12/07 04:10:08;;;;;;;;;;;4.20;99.90;;;;;;5073922;28;20387;-77
2022/12/07 04:12:33;;;;;;;;;;;4.20;99.90;;;;;;5056659;28;19928;-78
2022/12/07 04:14:59;;;;;;;;;;;4.20;99.90;;;;;;5053652;28;19928;-78
2022/12/07 04:17:27;;;;;;;;;;;4.20;99.90;;;;;;5055599;28;19927;-78
2022/12/07 04:19:56;;;;;;;;;;;4.10;99.90;;;;;;5063517;28;19966;-78
2022/12/07 04:22:21;;;;;;;;;;;5.00;99.90;;;;;;5074467;28;19943;-78
2022/12/07 04:24:47;;;;;;;;;;;4.90;99.90;;;;;;5073791;28;20375;-78
2022/12/07 04:27:12;;;;;;;;;;;4.00;99.90;;;;;;5060898;28;19931;-78
2022/12/07 04:29:38;;;;;;;;;;;4.00;99.90;;;;;;5054173;28;20409;-78
2022/12/07 04:32:03;;;;;;;;;;;4.00;99.90;;;;;;5087282;28;20331;-78
2022/12/07 04:34:29;;;;;;;;;;;4.10;99.90;;;;;;5055009;28;19927;-76
2022/12/07 04:36:54;;;;;;;;;;;4.10;99.90;;;;;;5063642;28;19963;-78
2022/12/07 04:39:25;;;;;;;;;;;4.00;99.90;;;;;;5074806;28;20006;-78
2022/12/07 04:41:51;;;;;;;;;;;4.00;99.90;;;;;;5072693;28;19920;-77
2022/12/07 04:44:17;;;;;;;;;;;3.90;99.90;;;;;;5071697;28;20303;-77
2022/12/07 04:46:43;;;;;;;;;;;3.90;99.90;;;;;;5074153;28;19995;-77
2022/12/07 04:49:09;;;;;;;;;;;4.00;99.90;;;;;;5074022;28;20054;-78
2022/12/07 04:51:35;;;;;;;;;;;4.20;99.90;;;;;;5072754;28;19920;-77
2022/12/07 04:54:03;;;;;;;;;;;4.90;99.90;;;;;;5055678;28;19921;-77
2022/12/07 04:56:29;;;;;;;;;;;4.30;99.90;;;;;;5053939;28;19921;-77
2022/12/07 04:58:54;;;;;;;;;;;4.30;99.90;;;;;;5054202;28;19921;-77
2022/12/07 05:01:20;;;;;;;;;;;4.40;99.90;;;;;;5054393;28;20372;-76
2022/12/07 05:03:46;;;;;;;;;;;5.20;99.90;;;;;;5054743;28;19925;-77
2022/12/07 05:06:12;;;;;;;;;;;5.80;99.90;;;;;;5054038;28;20327;-77
2022/12/07 05:08:40;;;;;;;;;;;4.30;99.90;;;;;;5053312;28;19920;-73
2022/12/07 05:11:09;;;;;;;;;;;4.60;99.90;;;;;;5053439;28;19929;-74
2022/12/07 05:13:35;;;;;;;;;;;5.20;99.90;;;;;;5054616;28;19927;-73
2022/12/07 05:16:01;;;;;;;;;;;4.20;99.90;;;;;;5053715;28;19921;-79
2022/12/07 05:18:26;;;;;;;;;;;4.20;99.90;;;;;;5053093;28;19925;-78
2022/12/07 05:20:52;;;;;;;;;;;5.00;99.90;;;;;;5085884;28;19921;-76
2022/12/07 05:23:17;;;;;;;;;;;4.10;99.90;;;;;;5054017;28;20269;-75
2022/12/07 05:25:43;;;;;;;;;;;4.00;99.90;;;;;;5052948;28;19928;-76
2022/12/07 05:28:17;;;;;;;;;;;5.00;99.90;;;;;;5052296;28;19921;-79
2022/12/07 05:30:42;;;;;;;;;;;5.60;99.90;;;;;;5052459;28;20384;-74
2022/12/07 05:33:08;;;;;;;;;;;3.90;99.90;;;;;;5060951;28;19972;-75
2022/12/07 05:35:33;;;;;;;;;;;3.80;99.90;;;;;;5073653;28;19920;-79
2022/12/07 05:37:59;;;;;;;;;;;3.80;99.90;;;;;;5073467;28;19920;-85
2022/12/07 05:40:24;;;;;;;;;;;3.70;99.90;;;;;;5065796;28;19917;-78
2022/12/07 05:42:53;;;;;;;;;;;3.70;99.90;;;;;;5058511;28;19928;-72
2022/12/07 05:45:18;;;;;;;;;;;3.60;99.90;;;;;;5053539;28;19966;-73
2022/12/07 05:47:44;;;;;;;;;;;3.80;99.90;;;;;;5056320;28;19963;-75
2022/12/07 05:50:09;;;;;;;;;;;3.80;99.90;;;;;;5051835;28;19917;-72
2022/12/07 05:52:35;;;;;;;;;;;3.80;99.90;;;;;;5053318;28;19924;-74
2022/12/07 05:55:01;;;;;;;;;;;3.70;99.90;;;;;;5051184;28;20062;-74
2022/12/07 05:57:26;;;;;;;;;;;3.70;99.90;;;;;;5052913;28;19931;-74
2022/12/07 05:59:52;;;;;;;;;;;3.70;99.90;;;;;;5052720;28;19920;-75
2022/12/07 06:02:17;;;;;;;;;;;3.60;99.90;;;;;;5052244;28;19928;-74
2022/12/07 06:04:45;;;;;;;;;;;4.70;99.90;;;;;;5052063;28;19920;-83
2022/12/07 06:07:12;;;;;;;;;;;3.50;99.90;;;;;;5052778;28;19927;-75
2022/12/07 06:09:38;;;;;;;;;;;3.50;99.90;;;;;;5053431;28;19928;-82
2022/12/07 06:14:48;;;;;;;;;;;3.40;99.90;;;;;;5084599;28;20372;-83
2022/12/07 06:17:16;;;;;;;;;;;4.10;99.90;;;;;;5053176;28;19932;-77
2022/12/07 06:19:42;;;;;;;;;;;3.40;99.90;;;;;;5053241;28;19927;-74
2022/12/07 06:22:08;;;;;;;;;;;3.40;99.90;;;;;;5050577;28;19916;-74
2022/12/07 06:24:34;;;;;;;;;;;3.30;99.90;;;;;;5053008;28;19927;-75
2022/12/07 06:27:00;;;;;;;;;;;3.40;99.90;;;;;;5052664;28;20003;-80
2022/12/07 06:29:25;;;;;;;;;;;3.40;99.90;;;;;;5059967;28;19924;-74
2022/12/07 06:31:51;;;;;;;;;;;3.40;99.90;;;;;;5058317;28;19917;-73
2022/12/07 06:34:18;;;;;;;;;;;3.40;99.90;;;;;;5058141;28;19924;-77
2022/12/07 06:36:44;;;;;;;;;;;3.40;99.90;;;;;;5067375;28;20003;-76
2022/12/07 06:39:10;;;;;;;;;;;3.40;99.90;;;;;;5052590;28;20011;-74
2022/12/07 06:41:36;;;;;;;;;;;4.30;99.90;;;;;;5052602;28;20350;-75
2022/12/07 06:44:05;;;;;;;;;;;4.00;99.90;;;;;;5051364;28;19975;-77
2022/12/07 06:46:31;;;;;;;;;;;3.70;99.90;;;;;;5070047;28;19974;-73
2022/12/07 06:48:57;;;;;;;;;;;3.90;99.90;;;;;;5072383;28;19920;-72
2022/12/07 06:51:22;;;;;;;;;;;3.60;99.90;;;;;;5072775;28;19920;-74
2022/12/07 06:53:48;;;;;;;;;;;3.60;99.90;;;;;;5067971;28;19939;-75
2022/12/07 06:56:13;;;;;;;;;;;3.60;99.90;;;;;;5050793;28;19921;-74
2022/12/07 06:58:39;;;;;;;;;;;3.60;99.90;;;;;;5051893;28;20008;-73
2022/12/07 07:01:14;;;;;;;;;;;3.60;99.90;;;;;;5054515;28;20003;-75
2022/12/07 07:03:40;;;;;;;;;;;3.60;99.90;;;;;;5057207;28;20019;-77
2022/12/07 07:06:07;;;;;;;;;;;3.60;99.90;;;;;;5076516;28;20387;-77
2022/12/07 07:08:33;;;;;;;;;;;3.70;99.90;;;;;;5075358;28;20010;-72
2022/12/07 07:10:58;;;;;;;;;;;3.80;99.90;;;;;;5075890;28;19999;-72
2022/12/07 07:13:27;;;;;;;;;;;3.90;99.90;;;;;;5067273;28;20028;-75
2022/12/07 07:15:53;;;;;;;;;;;3.80;99.90;;;;;;5056222;28;19966;-76
2022/12/07 07:18:18;;;;;;;;;;;5.20;99.90;;;;;;5060303;28;20367;-78
2022/12/07 07:20:44;;;;;;;;;;;4.50;99.90;;;;;;5076523;28;19920;-77
2022/12/07 07:23:09;;;;;;;;;;;4.00;99.90;;;;;;5075942;28;20403;-74
2022/12/07 07:25:35;;;;;;;;;;;4.00;99.90;;;;;;5074427;28;20398;-76
2022/12/07 07:28:01;;;;;;;;;;;3.90;99.90;;;;;;5072308;28;19920;-77
2022/12/07 07:30:26;;;;;;;;;;;4.40;99.90;;;;;;5070765;28;19928;-76
2022/12/07 07:32:55;;;;;;;;;;;3.90;99.90;;;;;;5073117;28;19920;-75
2022/12/07 07:35:21;;;;;;;;;;;4.10;99.90;;;;;;5066392;28;20011;-75
2022/12/07 07:37:50;;;;;;;;;;;4.20;99.90;;;;;;5066023;28;20364;-75
2022/12/07 07:40:15;;;;;;;;;;;4.70;99.90;;;;;;5064728;28;19929;-75
2022/12/07 07:42:41;;;;;;;;;;;4.20;99.90;;;;;;5056190;28;19921;-75
2022/12/07 07:45:06;;;;;;;;;;;4.10;99.90;;;;;;5055260;28;19920;-75
2022/12/07 07:47:32;;;;;;;;;;;4.00;99.90;;;;;;5055683;28;20375;-75
2022/12/07 07:49:57;;;;;;;;;;;4.00;99.90;;;;;;5054882;28;19975;-75
2022/12/07 07:52:23;;;;;;;;;;;3.90;99.90;;;;;;5063743;28;20014;-75
2022/12/07 07:54:49;;;;;;;;;;;3.80;99.90;;;;;;5073426;28;19920;-75
2022/12/07 07:57:15;;;;;;;;;;;3.80;99.90;;;;;;5074650;28;19920;-75
2022/12/07 07:59:44;;;;;;;;;;;3.80;99.90;;;;;;5072572;28;19925;-75
2022/12/07 08:02:13;;;;;;;;;;;3.80;99.90;;;;;;5072876;28;19927;-75
2022/12/07 08:04:39;;;;;;;;;;;3.90;99.90;;;;;;5073069;28;19920;-75
2022/12/07 08:07:04;;;;;;;;;;;4.00;99.90;;;;;;5073015;28;20814;-75
2022/12/07 08:09:30;;;;;;;;;;;4.20;99.90;;;;;;5074114;28;20033;-75
2022/12/07 08:11:55;;;;;;;;;;;4.30;99.90;;;;;;5073111;28;19931;-75
2022/12/07 08:14:21;;;;;;;;;;;4.50;99.90;;;;;;5071122;28;19920;-76
2022/12/07 08:16:46;;;;;;;;;;;6.80;99.90;;;;;;5064572;28;19920;-76
2022/12/07 08:19:12;;;;;;;;;;;4.20;99.90;;;;;;5075570;28;19993;-76
2022/12/07 08:21:37;;;;;;;;;;;4.20;99.90;;;;;;5057445;28;19966;-76
2022/12/07 08:24:03;;;;;;;;;;;4.10;99.90;;;;;;5054908;28;20364;-76
2022/12/07 08:26:28;;;;;;;;;;;4.10;99.90;;;;;;5054942;28;19924;-76
2022/12/07 08:28:54;;;;;;;;;;;4.10;99.90;;;;;;5053490;28;19973;-76
2022/12/07 08:31:23;;;;;;;;;;;4.10;99.90;;;;;;5059528;28;19921;-76
2022/12/07 08:33:48;;;;;;;;;;;4.10;99.90;;;;;;5053361;28;19928;-76
2022/12/07 08:36:14;;;;;;;;;;;4.00;99.90;;;;;;5072851;28;19920;-76
2022/12/07 08:38:40;;;;;;;;;;;4.00;99.90;;;;;;5073252;28;19931;-77
2022/12/07 08:41:06;;;;;;;;;;;5.00;99.90;;;;;;5057335;28;19925;-77
2022/12/07 08:43:32;;;;;;;;;;;4.70;99.90;;;;;;5054791;28;19928;-77
2022/12/07 08:46:24;;;;;;;;;;;4.00;99.90;;;;;;5055590;28;19921;-76
2022/12/07 08:48:54;;;;;;;;;;;4.00;99.90;;;;;;5051851;28;19921;-76
2022/12/07 08:51:20;;;;;;;;;;;4.00;99.90;;;;;;5068272;28;20367;-76
2022/12/07 08:53:46;;;;;;;;;;;4.10;99.90;;;;;;5057222;28;19982;-76
2022/12/07 08:56:12;;;;;;;;;;;4.30;99.90;;;;;;5072013;28;19929;-77
2022/12/07 08:58:38;;;;;;;;;;;5.20;99.90;;;;;;5070933;28;19935;-75
2022/12/07 09:01:04;;;;;;;;;;;7.00;99.90;;;;;;5056750;28;19929;-75
2022/12/07 09:03:30;;;;;;;;;;;7.50;99.90;;;;;;5063541;28;19974;-75
2022/12/07 09:05:55;;;;;;;;;;;8.60;99.90;;;;;;5073416;28;19924;-76
2022/12/07 09:08:22;;;;;;;;;;;9.00;99.90;;;;;;5074184;28;20379;-75
2022/12/07 09:10:47;;;;;;;;;;;9.80;99.90;;;;;;5071522;28;19920;-75
2022/12/07 09:13:13;;;;;;;;;;;10.60;99.90;;;;;;5072774;28;20265;-75
2022/12/07 09:15:39;;;;;;;;;;;11.50;99.90;;;;;;5060932;28;19947;-75
2022/12/07 09:18:04;;;;;;;;;;;12.00;99.90;;;;;;5072422;28;19922;-75
2022/12/07 09:20:30;;;;;;;;;;;12.60;99.90;;;;;;5073134;28;20283;-75
2022/12/07 09:22:56;;;;;;;;;;;12.00;99.90;;;;;;5072651;28;19991;-75
2022/12/07 09:25:21;;;;;;;;;;;10.70;99.90;;;;;;5072100;28;19920;-75
2022/12/07 09:27:47;;;;;;;;;;;9.90;99.90;;;;;;5073940;28;19923;-76
2022/12/07 09:30:13;;;;;;;;;;;9.60;99.90;;;;;;5073496;28;19924;-75
2022/12/07 09:32:38;;;;;;;;;;;8.50;99.90;;;;;;5069784;28;19936;-75
2022/12/07 09:35:07;;;;;;;;;;;8.10;99.90;;;;;;5073073;28;19954;-75
2022/12/07 09:37:35;;;;;;;;;;;8.30;99.90;;;;;;5072127;28;20402;-75
2022/12/07 09:40:02;;;;;;;;;;;9.20;99.90;;;;;;5071122;28;20415;-76
2022/12/07 09:42:27;;;;;;;;;;;10.60;99.90;;;;;;5054502;28;20007;-75
2022/12/07 09:44:53;;;;;;;;;;;11.70;99.90;;;;;;5052427;28;20023;-76
2022/12/07 09:47:18;;;;;;;;;;;12.30;99.90;;;;;;5053830;28;20003;-76
2022/12/07 09:49:44;;;;;;;;;;;12.80;99.90;;;;;;5070778;28;19966;-76
2022/12/07 09:52:12;;;;;;;;;;;13.50;99.90;;;;;;5055914;28;20514;-76
2022/12/07 09:54:41;;;;;;;;;;;13.50;99.90;;;;;;5073261;28;20602;-75
2022/12/07 09:57:07;;;;;;;;;;;13.80;99.40;;;;;;5060259;28;20291;-74
2022/12/07 09:59:33;;;;;;;;;;;13.50;97.60;;;;;;5071636;28;19928;-74
2022/12/07 10:02:17;;;;;;;;;;;13.20;98.20;;;;;;5071091;28;19963;-74
2022/12/07 10:04:43;;;;;;;;;;;13.30;98.80;;;;;;5063627;28;20107;-74
2022/12/07 10:07:09;;;;;;;;;;;13.00;99.90;;;;;;5052528;28;19966;-74
2022/12/07 10:09:35;;;;;;;;;;;13.10;99.90;;;;;;5053377;28;19920;-75
2022/12/07 10:12:06;;;;;;;;;;;13.20;99.40;;;;;;5064967;28;20090;-74
2022/12/07 10:14:37;;;;;;;;;;;13.20;99.90;;;;;;5052700;28;19924;-75
2022/12/07 10:17:17;;;;;;;;;;;12.70;99.90;;;;;;5057849;28;19921;-74
2022/12/07 10:19:42;;;;;;;;;;;11.50;99.90;;;;;;5072683;28;19981;-74
2022/12/07 10:22:12;;;;;;;;;;;10.50;99.90;;;;;;5056330;28;20367;-74
2022/12/07 10:24:40;;;;;;;;;;;9.80;99.90;;;;;;5053087;28;19921;-75
2022/12/07 10:27:25;;;;;;;;;;;9.20;99.90;;;;;;5051971;28;20007;-74
2022/12/07 10:29:51;;;;;;;;;;;8.80;99.90;;;;;;5055856;28;19926;-74
2022/12/07 10:32:16;;;;;;;;;;;9.20;99.90;;;;;;5063422;28;19973;-74
2022/12/07 10:34:42;;;;;;;;;;;8.20;99.90;;;;;;5052180;28;19924;-75
2022/12/07 10:37:17;;;;;;;;;;;8.00;99.90;;;;;;5060651;28;19920;-74
2022/12/07 10:39:44;;;;;;;;;;;7.90;99.90;;;;;;5062275;28;19920;-75
2022/12/07 10:42:18;;;;;;;;;;;8.50;99.90;;;;;;5070493;28;19924;-74
2022/12/07 10:44:43;;;;;;;;;;;8.10;99.90;;;;;;5071295;28;19971;-75
2022/12/07 10:47:18;;;;;;;;;;;8.20;99.90;;;;;;5068925;28;19974;-75
2022/12/07 10:49:55;;;;;;;;;;;8.10;99.90;;;;;;5072167;28;19920;-75
2022/12/07 10:52:41;;;;;;;;;;;8.00;99.90;;;;;;5066941;28;19973;-75
2022/12/07 10:55:07;;;;;;;;;;;9.10;99.90;;;;;;5022663;28;19924;-74
2022/12/07 10:57:50;;;;;;;;;;;7.90;99.90;;;;;;5052333;28;19928;-74
2022/12/07 11:00:15;;;;;;;;;;;7.90;99.90;;;;;;5085769;28;19921;-75
2022/12/07 11:02:44;;;;;;;;;;;7.90;99.90;;;;;;5051908;28;20269;-75
2022/12/07 11:05:21;;;;;;;;;;;8.10;99.90;;;;;;5084770;28;19916;-74
2022/12/07 11:08:13;;;;;;;;;;;8.20;99.90;;;;;;5052467;28;19924;-74
2022/12/07 11:10:57;;;;;;;;;;;8.40;99.90;;;;;;5053303;28;19921;-75
2022/12/07 11:13:25;;;;;;;;;;;9.20;99.90;;;;;;5052499;28;19986;-75
2022/12/07 11:16:00;;;;;;;;;;;9.60;99.90;;;;;;5052975;28;19921;-74
2022/12/07 11:18:49;;;;;;;;;;;9.30;99.90;;;;;;5053093;28;19921;-74
2022/12/07 11:21:14;;;;;;;;;;;9.00;99.90;;;;;;5051209;28;19920;-75
2022/12/07 11:23:55;;;;;;;;;;;8.70;99.90;;;;;;5058466;28;19924;-74
2022/12/07 11:26:29;;;;;;;;;;;8.30;99.90;;;;;;5068369;28;19920;-75
2022/12/07 11:29:10;;;;;;;;;;;8.50;99.90;;;;;;5083982;28;20018;-75
2022/12/07 11:31:44;;;;;;;;;;;9.50;99.90;;;;;;5051721;28;20294;-75
2022/12/07 11:34:23;;;;;;;;;;;10.20;99.90;;;;;;5051748;28;19920;-75
2022/12/07 11:36:51;;;;;;;;;;;11.30;99.90;;;;;;5051795;28;19927;-75
2022/12/07 11:39:30;;;;;;;;;;;11.10;99.90;;;;;;5052088;28;19921;-75
2022/12/07 11:42:22;;;;;;;;;;;10.20;99.90;;;;;;5065938;28;19920;-75
2022/12/07 11:44:57;;;;;;;;;;;9.50;99.90;;;;;;5065897;28;19928;-75
2022/12/07 11:47:26;;;;;;;;;;;8.90;99.90;;;;;;5073302;28;19926;-74
2022/12/07 11:49:54;;;;;;;;;;;8.30;99.90;;;;;;5075466;28;19927;-74
2022/12/07 11:52:43;;;;;;;;;;;8.40;99.90;;;;;;5071354;28;19947;-75
2022/12/07 11:55:23;;;;;;;;;;;9.10;99.90;;;;;;5056244;28;20380;-75
2022/12/07 11:57:51;;;;;;;;;;;9.90;99.90;;;;;;5063748;28;19921;-75
2022/12/07 12:00:17;;;;;;;;;;;11.20;99.90;;;;;;5055420;28;19995;-75
2022/12/07 12:02:53;;;;;;;;;;;12.00;99.90;;;;;;5055621;28;20011;-75
2022/12/07 12:05:21;;;;;;;;;;;12.30;99.90;;;;;;5054585;28;19927;-75
2022/12/07 12:07:49;;;;;;;;;;;13.50;99.90;;;;;;5072874;28;19971;-75
2022/12/07 12:10:18;;;;;;;;;;;11.30;99.90;;;;;;5073896;28;20383;-74
2022/12/07 12:13:02;;;;;;;;;;;10.40;99.90;;;;;;5071008;28;19920;-74
2022/12/07 12:15:38;;;;;;;;;;;9.80;99.90;;;;;;5061694;28;19928;-74
2022/12/07 12:18:09;;;;;;;;;;;9.20;99.90;;;;;;5055118;28;19967;-74
2022/12/07 12:21:07;;;;;;;;;;;8.70;99.90;;;;;;5054819;28;20383;-74
2022/12/07 12:23:53;;;;;;;;;;;8.30;99.90;;;;;;5054214;28;19927;-74
2022/12/07 12:26:20;;;;;;;;;;;8.10;99.90;;;;;;5044794;28;20401;-74
2022/12/07 12:28:52;;;;;;;;;;;8.00;99.90;;;;;;5054442;28;19921;-74
2022/12/07 12:31:20;;;;;;;;;;;8.00;99.90;;;;;;5058312;28;19920;-74
2022/12/07 12:33:48;;;;;;;;;;;8.60;99.90;;;;;;5052823;28;19920;-75
2022/12/07 12:36:16;;;;;;;;;;;9.50;99.90;;;;;;5073942;28;19924;-74
2022/12/07 12:38:44;;;;;;;;;;;10.20;99.90;;;;;;5073867;28;19920;-75
2022/12/07 12:41:30;;;;;;;;;;;10.00;99.90;;;;;;5072657;28;20363;-74
2022/12/07 12:43:56;;;;;;;;;;;9.60;99.90;;;;;;5073262;28;19932;-74
2022/12/07 12:46:33;;;;;;;;;;;9.10;99.90;;;;;;5073208;28;19920;-74
2022/12/07 12:49:17;;;;;;;;;;;8.40;99.90;;;;;;5071373;28;19920;-73
2022/12/07 12:51:46;;;;;;;;;;;8.10;99.90;;;;;;5073763;28;19963;-73
2022/12/07 12:54:18;;;;;;;;;;;7.50;99.90;;;;;;5072831;28;19920;-73
2022/12/07 12:56:55;;;;;;;;;;;7.10;99.90;;;;;;5072675;28;19920;-73
2022/12/07 12:59:21;;;;;;;;;;;6.90;99.90;;;;;;5072250;28;19920;-73
2022/12/07 13:01:47;;;;;;;;;;;7.90;99.90;;;;;;5073271;28;20264;-72
2022/12/07 13:04:16;;;;;;;;;;;6.70;99.90;;;;;;5074282;28;20280;-72
2022/12/07 13:06:42;;;;;;;;;;;6.60;99.90;;;;;;5074198;28;19974;-72
2022/12/07 13:09:17;;;;;;;;;;;6.70;99.90;;;;;;5071742;28;19924;-72
2022/12/07 13:11:44;;;;;;;;;;;7.50;99.90;;;;;;5062865;28;19927;-72
2022/12/07 13:14:29;;;;;;;;;;;7.40;99.90;;;;;;5055561;28;19928;-72
2022/12/07 13:16:54;;;;;;;;;;;6.70;99.90;;;;;;5059020;28;19970;-73
2022/12/07 13:19:39;;;;;;;;;;;6.90;99.90;;;;;;5052678;28;19924;-73
2022/12/07 13:22:24;;;;;;;;;;;6.70;99.90;;;;;;5058291;28;19921;-72
2022/12/07 13:25:05;;;;;;;;;;;7.00;99.90;;;;;;5053695;28;20027;-70
2022/12/07 13:27:36;;;;;;;;;;;6.30;99.90;;;;;;5057332;28;19943;-70
2022/12/07 13:30:07;;;;;;;;;;;6.70;99.90;;;;;;5051686;28;20380;-69
2022/12/07 13:32:34;;;;;;;;;;;6.10;99.90;;;;;;5052532;28;19920;-70
2022/12/07 13:34:59;;;;;;;;;;;6.30;99.90;;;;;;5052497;28;19975;-75
2022/12/07 13:37:28;;;;;;;;;;;5.80;99.90;;;;;;5053196;28;19925;-73
2022/12/07 13:39:55;;;;;;;;;;;5.70;99.90;;;;;;5053221;28;19920;-76
2022/12/07 13:42:21;;;;;;;;;;;5.60;99.90;;;;;;5053456;28;20368;-79
2022/12/07 13:44:46;;;;;;;;;;;5.70;99.90;;;;;;5051531;28;19924;-76
2022/12/07 13:47:16;;;;;;;;;;;5.40;99.90;;;;;;5053622;28;19936;-77
2022/12/07 13:49:52;;;;;;;;;;;5.20;99.90;;;;;;5053431;28;19954;-78
2022/12/07 13:52:19;;;;;;;;;;;5.40;99.90;;;;;;5057297;28;19975;-76
2022/12/07 13:54:46;;;;;;;;;;;5.30;99.90;;;;;;5053682;28;19921;-79
2022/12/07 13:57:15;;;;;;;;;;;5.30;99.90;;;;;;5053430;28;19924;-76
2022/12/07 13:59:41;;;;;;;;;;;5.30;99.90;;;;;;5060693;28;19920;-74
2022/12/07 14:02:27;;;;;;;;;;;5.30;99.90;;;;;;5054383;28;19929;-76
2022/12/07 14:05:05;;;;;;;;;;;5.20;99.90;;;;;;5063651;28;19974;-78
2022/12/07 14:07:33;;;;;;;;;;;6.20;99.90;;;;;;5059533;28;19920;-73
2022/12/07 14:10:00;;;;;;;;;;;5.90;99.90;;;;;;5062588;28;19966;-79
2022/12/07 14:12:26;;;;;;;;;;;5.10;99.90;;;;;;5051007;28;19924;-77
2022/12/07 14:14:52;;;;;;;;;;;5.00;99.90;;;;;;5059369;28;19967;-75
2022/12/07 14:17:18;;;;;;;;;;;5.40;99.90;;;;;;5063590;28;19991;-75
2022/12/07 14:19:46;;;;;;;;;;;6.10;99.90;;;;;;5057979;28;19924;-76
2022/12/07 14:22:18;;;;;;;;;;;4.90;99.90;;;;;;5053394;28;19951;-81
2022/12/07 14:24:43;;;;;;;;;;;4.90;99.90;;;;;;5054210;28;19920;-73
2022/12/07 14:27:19;;;;;;;;;;;4.80;99.90;;;;;;5052908;28;19925;-76
2022/12/07 14:29:45;;;;;;;;;;;4.80;99.90;;;;;;5061438;28;19921;-72
2022/12/07 14:32:18;;;;;;;;;;;4.70;99.90;;;;;;5060776;28;19936;-74
2022/12/07 14:34:53;;;;;;;;;;;4.70;99.90;;;;;;5061451;28;20443;-74
2022/12/07 14:37:19;;;;;;;;;;;4.60;99.90;;;;;;5061489;28;20011;-72
2022/12/07 14:39:44;;;;;;;;;;;4.60;99.90;;;;;;5057861;28;20003;-73
2022/12/07 14:42:10;;;;;;;;;;;5.00;99.90;;;;;;5061635;28;19920;-74